Check out our new BloomSky Weather System.

Active alerts


No alerts


Thunder radar  blitzortung!


Rain radar more information rain snow radar


Visit our other weather sites:

Template documentation
and downloads

And another site



Weather Underground History page Text

Daily Summary for January 20, 2017 Units:  English    Metric   Both
« Previous Day
Next Day »
Daily Weekly Monthly Yearly Custom
  High: Low: Average:
Temperature: 76.5 °F 56.7 °F 65.7 °F
Dew Point: 67.6 °F 55.8 °F 63 °F
Humidity: 100 % 69 % 92 %
Wind Speed: 10.0 mph 0.0 mph 2 mph
Wind Gust: 12.0 mph - -
Wind:- - SSW
Pressure: 29.83 in 29.63 in -
Precipitation: 0.56 in    
Historical Graphs
 
 
Tabular Data for January 20, 2017
Time Temperature Dew Point Pressure Wind Wind Speed Wind Gust Humidity Rainfall Rate (Hourly)
00:00 56.7 °F 55.8 °F 29.75 in Calm     97 % 0.00 in
00:06 56.7 °F 56.1 °F 29.75 in Calm     98 % 0.00 in
00:11 57.0 °F 56.5 °F 29.75 in Calm     98 % 0.00 in
00:16 57.4 °F 56.8 °F 29.75 in SSW 1.0 mph   98 % 0.00 in
00:21 57.6 °F 57.2 °F 29.75 in Calm   1.0 mph 99 % 0.00 in
00:26 57.9 °F 57.6 °F 29.74 in SE 1.0 mph 2.0 mph 99 % 0.00 in
00:31 58.6 °F 58.3 °F 29.74 in South 1.0 mph 2.0 mph 99 % 0.00 in
00:36 58.8 °F 58.5 °F 29.74 in SSW 2.0 mph 2.0 mph 99 % 0.00 in
00:41 59.4 °F 59.0 °F 29.73 in Calm   2.0 mph 99 % 0.00 in
00:46 59.5 °F 59.2 °F 29.73 in SSW 1.0 mph 3.0 mph 99 % 0.00 in
00:51 59.5 °F 59.2 °F 29.73 in South 2.0 mph 3.0 mph 99 % 0.00 in
00:57 59.7 °F 59.4 °F 29.73 in SW 6.0 mph 6.0 mph 99 % 0.00 in
01:02 59.9 °F 59.5 °F 29.73 in South 1.0 mph 7.0 mph 99 % 0.00 in
01:07 59.9 °F 59.5 °F 29.73 in SSW 2.0 mph 7.0 mph 99 % 0.00 in
01:12 60.1 °F 59.7 °F 29.73 in SSW 2.0 mph 7.0 mph 99 % 0.00 in
01:17 59.9 °F 59.5 °F 29.73 in SW 1.0 mph 5.0 mph 99 % 0.00 in
01:22 60.1 °F 59.7 °F 29.73 in SW 2.0 mph 5.0 mph 99 % 0.00 in
01:27 60.1 °F 59.7 °F 29.73 in SW 2.0 mph 5.0 mph 99 % 0.00 in
01:32 60.1 °F 59.7 °F 29.73 in SSW 3.0 mph 4.0 mph 99 % 0.00 in
01:37 60.1 °F 59.7 °F 29.73 in South 4.0 mph 6.0 mph 99 % 0.00 in
01:42 60.1 °F 59.7 °F 29.74 in South 4.0 mph 6.0 mph 99 % 0.00 in
01:47 60.1 °F 59.7 °F 29.74 in SSW 3.0 mph 9.0 mph 99 % 0.00 in
01:52 60.1 °F 59.7 °F 29.74 in SSW 4.0 mph 9.0 mph 99 % 0.00 in
01:57 60.1 °F 59.7 °F 29.74 in South 3.0 mph 9.0 mph 99 % 0.00 in
02:01 60.1 °F 59.7 °F 29.74 in SSE 2.0 mph 5.0 mph 99 % 0.00 in
02:07 60.1 °F 59.7 °F 29.74 in South 3.0 mph 5.0 mph 99 % 0.00 in
02:12 60.1 °F 59.7 °F 29.74 in Calm   6.0 mph 99 % 0.00 in
02:17 60.1 °F 59.7 °F 29.74 in SSW 6.0 mph 6.0 mph 99 % 0.00 in
02:22 60.1 °F 59.7 °F 29.74 in SSW 1.0 mph 6.0 mph 99 % 0.00 in
02:27 60.3 °F 59.9 °F 29.75 in South 3.0 mph 6.0 mph 99 % 0.00 in
02:32 60.3 °F 59.9 °F 29.74 in SSW 3.0 mph 7.0 mph 99 % 0.00 in
02:37 60.3 °F 59.9 °F 29.74 in SSE 1.0 mph 7.0 mph 99 % 0.00 in
02:42 60.4 °F 60.1 °F 29.74 in SW 4.0 mph 7.0 mph 99 % 0.00 in
02:47 60.4 °F 60.1 °F 29.74 in SW 2.0 mph 7.0 mph 99 % 0.00 in
02:52 60.4 °F 60.1 °F 29.74 in SW 4.0 mph 9.0 mph 99 % 0.00 in
02:57 60.4 °F 60.1 °F 29.74 in SW 7.0 mph 9.0 mph 99 % 0.00 in
03:02 60.4 °F 60.1 °F 29.74 in SSW 10.0 mph 10.0 mph 99 % 0.00 in
03:07 60.4 °F 60.1 °F 29.74 in SW 4.0 mph 10.0 mph 99 % 0.00 in
03:12 60.4 °F 60.1 °F 29.74 in SE 2.0 mph 10.0 mph 99 % 0.00 in
03:17 60.6 °F 60.3 °F 29.74 in SW 2.0 mph 10.0 mph 99 % 0.00 in
03:22 60.6 °F 60.3 °F 29.74 in SSW 4.0 mph 8.0 mph 99 % 0.00 in
03:27 60.6 °F 60.3 °F 29.74 in South 2.0 mph 8.0 mph 99 % 0.00 in
03:32 60.6 °F 60.3 °F 29.74 in SSE 5.0 mph 8.0 mph 99 % 0.00 in
03:37 60.8 °F 60.4 °F 29.74 in SE 6.0 mph 9.0 mph 99 % 0.00 in
03:42 60.8 °F 60.4 °F 29.74 in SSW 5.0 mph 9.0 mph 99 % 0.00 in
03:47 60.6 °F 60.3 °F 29.74 in SSW 4.0 mph 9.0 mph 99 % 0.00 in
03:52 60.6 °F 60.3 °F 29.74 in South 2.0 mph 11.0 mph 99 % 0.00 in
03:57 60.6 °F 60.3 °F 29.74 in SSE 3.0 mph 11.0 mph 99 % 0.00 in
03:59 60.6 °F 60.3 °F 29.74 in WSW 3.0 mph 11.0 mph 99 % 0.00 in
04:04 60.8 °F 60.4 °F 29.75 in South 2.0 mph 11.0 mph 99 % 0.00 in
04:09 60.8 °F 60.8 °F 29.75 in SSW 1.0 mph 9.0 mph 100 % 0.00 in
04:14 60.8 °F 60.8 °F 29.75 in SW 2.0 mph 7.0 mph 100 % 0.00 in
04:19 60.8 °F 60.8 °F 29.75 in SW 3.0 mph 7.0 mph 100 % 0.00 in
04:24 61.0 °F 61.0 °F 29.75 in SSW 3.0 mph 7.0 mph 100 % 0.00 in
04:29 61.0 °F 61.0 °F 29.74 in SSW 2.0 mph 7.0 mph 100 % 0.00 in
04:34 61.0 °F 61.0 °F 29.75 in SSE 5.0 mph 7.0 mph 100 % 0.00 in
04:39 61.0 °F 61.0 °F 29.75 in SSW 2.0 mph 6.0 mph 100 % 0.00 in
04:44 61.0 °F 61.0 °F 29.75 in SSW 2.0 mph 6.0 mph 100 % 0.00 in
04:49 61.0 °F 61.0 °F 29.75 in SW 2.0 mph 6.0 mph 100 % 0.00 in
04:54 60.8 °F 60.8 °F 29.74 in SSW 5.0 mph 7.0 mph 100 % 0.00 in
04:59 60.8 °F 60.8 °F 29.74 in SSE 2.0 mph 7.0 mph 100 % 0.00 in
05:04 61.0 °F 61.0 °F 29.75 in SSW 2.0 mph 7.0 mph 100 % 0.00 in
05:09 60.8 °F 60.8 °F 29.75 in SW 4.0 mph 7.0 mph 100 % 0.00 in
05:14 61.0 °F 61.0 °F 29.75 in SSW 5.0 mph 7.0 mph 100 % 0.00 in
05:19 60.8 °F 60.8 °F 29.75 in SSE 4.0 mph 7.0 mph 100 % 0.00 in
05:24 60.8 °F 60.8 °F 29.75 in South 4.0 mph 7.0 mph 100 % 0.00 in
05:29 60.8 °F 60.8 °F 29.75 in ESE 3.0 mph 7.0 mph 100 % 0.00 in
05:34 60.8 °F 60.8 °F 29.74 in SW 5.0 mph 7.0 mph 100 % 0.00 in
05:39 60.6 °F 60.3 °F 29.75 in SSW 5.0 mph 6.0 mph 99 % 0.00 in
05:44 60.6 °F 60.3 °F 29.75 in SSW 1.0 mph 7.0 mph 99 % 0.00 in
05:49 60.6 °F 60.3 °F 29.75 in SSE 3.0 mph 7.0 mph 99 % 0.00 in
05:55 60.6 °F 60.3 °F 29.75 in SSE 2.0 mph 7.0 mph 99 % 0.00 in
06:00 60.4 °F 60.1 °F 29.75 in SSE 2.0 mph 4.0 mph 99 % 0.00 in
06:04 60.3 °F 59.9 °F 29.75 in South 5.0 mph 5.0 mph 99 % 0.00 in
06:10 60.3 °F 59.9 °F 29.75 in South 3.0 mph 8.0 mph 99 % 0.00 in
06:15 60.1 °F 59.7 °F 29.75 in SSW 1.0 mph 8.0 mph 99 % 0.00 in
06:20 60.1 °F 59.7 °F 29.75 in South 1.0 mph 8.0 mph 99 % 0.00 in
06:25 60.1 °F 59.7 °F 29.75 in Calm   5.0 mph 99 % 0.00 in
06:30 60.1 °F 59.7 °F 29.76 in Calm   3.0 mph 99 % 0.00 in
06:35 60.1 °F 59.7 °F 29.76 in SW 1.0 mph 3.0 mph 99 % 0.00 in
06:40 60.1 °F 59.7 °F 29.76 in SSE 1.0 mph 3.0 mph 99 % 0.00 in
06:45 60.1 °F 59.7 °F 29.76 in SSW 2.0 mph 2.0 mph 99 % 0.00 in
06:50 59.9 °F 59.5 °F 29.77 in SSW 2.0 mph 3.0 mph 99 % 0.00 in
06:55 59.9 °F 59.5 °F 29.76 in SSE 2.0 mph 3.0 mph 99 % 0.00 in
07:00 59.9 °F 59.5 °F 29.76 in SSE 3.0 mph 3.0 mph 99 % 0.00 in
07:05 59.9 °F 59.5 °F 29.77 in SSW 4.0 mph 5.0 mph 99 % 0.00 in
07:10 59.7 °F 59.4 °F 29.77 in Calm   5.0 mph 99 % 0.00 in
07:15 59.9 °F 59.5 °F 29.77 in Calm   5.0 mph 99 % 0.00 in
07:20 59.9 °F 59.5 °F 29.77 in South 1.0 mph 4.0 mph 99 % 0.00 in
07:25 59.7 °F 59.4 °F 29.77 in SE 1.0 mph 2.0 mph 99 % 0.00 in
07:30 59.7 °F 59.4 °F 29.77 in South 2.0 mph 4.0 mph 99 % 0.00 in
07:35 59.7 °F 59.4 °F 29.78 in Calm   4.0 mph 99 % 0.00 in
07:40 59.7 °F 59.4 °F 29.78 in SSW 1.0 mph 4.0 mph 99 % 0.00 in
07:45 59.7 °F 59.4 °F 29.78 in South 1.0 mph 4.0 mph 99 % 0.00 in
07:50 59.7 °F 59.4 °F 29.78 in South 3.0 mph 4.0 mph 99 % 0.00 in
07:55 59.7 °F 59.4 °F 29.79 in SSE 1.0 mph 5.0 mph 99 % 0.00 in
08:00 59.7 °F 59.4 °F 29.79 in SW 2.0 mph 5.0 mph 99 % 0.00 in
08:05 59.9 °F 59.5 °F 29.79 in Calm   5.0 mph 99 % 0.00 in
08:10 59.9 °F 59.5 °F 29.80 in SSW 1.0 mph 4.0 mph 99 % 0.00 in
08:15 60.1 °F 59.7 °F 29.80 in SSE 3.0 mph 5.0 mph 99 % 0.00 in
08:20 59.9 °F 59.5 °F 29.81 in SSW 4.0 mph 5.0 mph 99 % 0.00 in
08:25 60.1 °F 59.7 °F 29.81 in South 2.0 mph 7.0 mph 99 % 0.00 in
08:30 60.1 °F 59.7 °F 29.81 in SW 2.0 mph 7.0 mph 99 % 0.00 in
08:35 60.1 °F 59.7 °F 29.81 in Calm   7.0 mph 99 % 0.00 in
08:40 60.3 °F 59.9 °F 29.82 in Calm   5.0 mph 99 % 0.00 in
08:45 60.3 °F 59.9 °F 29.82 in SW 1.0 mph 5.0 mph 99 % 0.00 in
08:50 60.4 °F 60.1 °F 29.82 in SW 1.0 mph 6.0 mph 99 % 0.00 in
08:55 60.4 °F 60.1 °F 29.83 in SSW 1.0 mph 6.0 mph 99 % 0.00 in
09:00 60.6 °F 60.3 °F 29.83 in SSW 4.0 mph 7.0 mph 99 % 0.00 in
09:05 60.6 °F 60.1 °F 29.83 in SSW 1.0 mph 9.0 mph 98 % 0.00 in
09:10 60.6 °F 60.1 °F 29.83 in SSW 5.0 mph 9.0 mph 98 % 0.00 in
09:40 61.2 °F 60.6 °F 29.83 in SSW 3.0 mph 12.0 mph 98 % 0.00 in
09:45 61.3 °F 60.8 °F 29.83 in South 4.0 mph 9.0 mph 98 % 0.00 in
09:51 61.5 °F 61.0 °F 29.83 in South 3.0 mph 9.0 mph 98 % 0.00 in
09:56 61.5 °F 60.6 °F 29.83 in SW 4.0 mph 9.0 mph 97 % 0.00 in
10:01 61.9 °F 61.0 °F 29.83 in SSW 2.0 mph 9.0 mph 97 % 0.00 in
10:06 61.9 °F 61.0 °F 29.83 in South 3.0 mph 7.0 mph 97 % 0.00 in
10:11 62.1 °F 61.2 °F 29.83 in SSW 2.0 mph 7.0 mph 97 % 0.00 in
10:16 62.8 °F 62.2 °F 29.82 in SW 2.0 mph 7.0 mph 98 % 0.00 in
10:21 63.5 °F 63.0 °F 29.82 in SE 2.0 mph 6.0 mph 98 % 0.00 in
10:26 64.2 °F 63.3 °F 29.82 in North 1.0 mph 4.0 mph 97 % 0.00 in
10:31 64.6 °F 63.5 °F 29.82 in WNW 1.0 mph 4.0 mph 96 % 0.00 in
10:36 64.8 °F 63.3 °F 29.82 in SSW 1.0 mph 3.0 mph 95 % 0.00 in
10:46 65.5 °F 63.7 °F 29.81 in SSW 1.0 mph 2.0 mph 94 % 0.00 in
10:51 65.8 °F 63.7 °F 29.81 in SW 1.0 mph 3.0 mph 93 % 0.00 in
10:56 66.6 °F 64.4 °F 29.81 in Calm   4.0 mph 93 % 0.00 in
11:01 67.3 °F 64.9 °F 29.81 in WSW 1.0 mph 5.0 mph 92 % 0.00 in
11:06 68.2 °F 65.1 °F 29.81 in WSW 1.0 mph 5.0 mph 90 % 0.00 in
11:11 68.9 °F 65.5 °F 29.81 in SSE 2.0 mph 5.0 mph 89 % 0.00 in
11:16 69.4 °F 65.5 °F 29.80 in Calm   5.0 mph 87 % 0.00 in
11:21 70.0 °F 65.7 °F 29.80 in Calm   2.0 mph 86 % 0.00 in
11:26 69.8 °F 64.8 °F 29.80 in SW 1.0 mph 5.0 mph 84 % 0.00 in
11:31 70.2 °F 65.5 °F 29.79 in East 3.0 mph 5.0 mph 85 % 0.00 in
11:36 70.5 °F 65.8 °F 29.79 in SE 4.0 mph 5.0 mph 85 % 0.00 in
11:41 70.9 °F 65.8 °F 29.79 in SE 2.0 mph 5.0 mph 84 % 0.00 in
11:46 71.1 °F 65.3 °F 29.78 in Calm   5.0 mph 82 % 0.00 in
11:51 71.8 °F 66.4 °F 29.78 in WNW 1.0 mph 5.0 mph 83 % 0.00 in
11:56 72.5 °F 66.4 °F 29.78 in NW 1.0 mph 5.0 mph 81 % 0.00 in
12:01 72.9 °F 66.4 °F 29.78 in NW 2.0 mph 5.0 mph 80 % 0.00 in
12:06 73.6 °F 67.1 °F 29.78 in ESE 3.0 mph 5.0 mph 80 % 0.00 in
12:11 73.8 °F 67.3 °F 29.77 in WNW 3.0 mph 3.0 mph 80 % 0.00 in
12:16 74.1 °F 67.1 °F 29.77 in SW 2.0 mph 4.0 mph 79 % 0.00 in
12:21 74.7 °F 66.9 °F 29.77 in SSW 1.0 mph 7.0 mph 77 % 0.00 in
12:26 74.7 °F 66.6 °F 29.76 in NW 2.0 mph 7.0 mph 76 % 0.00 in
12:31 74.7 °F 67.3 °F 29.75 in SE 1.0 mph 7.0 mph 78 % 0.00 in
12:36 74.8 °F 67.5 °F 29.75 in Calm   4.0 mph 78 % 0.00 in
12:41 75.2 °F 67.1 °F 29.74 in NNW 3.0 mph 4.0 mph 76 % 0.00 in
12:46 74.8 °F 66.7 °F 29.74 in WSW 2.0 mph 5.0 mph 76 % 0.00 in
12:51 75.0 °F 67.3 °F 29.74 in SSW 2.0 mph 5.0 mph 77 % 0.00 in
12:56 75.7 °F 67.3 °F 29.73 in Calm   5.0 mph 75 % 0.00 in
13:01 75.7 °F 66.9 °F 29.73 in NW 1.0 mph 4.0 mph 74 % 0.00 in
13:06 75.9 °F 67.5 °F 29.72 in WNW 4.0 mph 4.0 mph 75 % 0.00 in
13:11 75.0 °F 66.2 °F 29.72 in NW 1.0 mph 6.0 mph 74 % 0.00 in
13:16 75.4 °F 67.3 °F 29.72 in Calm   6.0 mph 76 % 0.00 in
13:21 75.9 °F 67.5 °F 29.72 in NW 1.0 mph 6.0 mph 75 % 0.00 in
13:26 75.9 °F 67.5 °F 29.72 in Calm   4.0 mph 75 % 0.00 in
13:31 75.6 °F 66.7 °F 29.71 in West 5.0 mph 5.0 mph 74 % 0.00 in
13:36 75.4 °F 67.3 °F 29.71 in West 1.0 mph 5.0 mph 76 % 0.00 in
13:41 75.4 °F 66.6 °F 29.71 in SW 1.0 mph 5.0 mph 74 % 0.00 in
13:46 75.7 °F 67.3 °F 29.70 in Calm   6.0 mph 75 % 0.00 in
13:52 76.3 °F 67.5 °F 29.70 in Calm   6.0 mph 74 % 0.00 in
13:57 76.5 °F 67.6 °F 29.70 in West 1.0 mph 6.0 mph 74 % 0.00 in
14:01 75.9 °F 66.6 °F 29.70 in NW 2.0 mph 5.0 mph 73 % 0.00 in
14:06 75.6 °F 67.5 °F 29.70 in SW 1.0 mph 5.0 mph 76 % 0.00 in
14:12 75.7 °F 67.3 °F 29.70 in NW 1.0 mph 5.0 mph 75 % 0.00 in
14:17 75.9 °F 67.5 °F 29.70 in Calm   5.0 mph 75 % 0.00 in
14:22 76.3 °F 66.9 °F 29.69 in NW 3.0 mph 4.0 mph 73 % 0.00 in
14:27 75.7 °F 66.9 °F 29.69 in Calm   4.0 mph 74 % 0.00 in
14:32 75.6 °F 67.1 °F 29.69 in NW 2.0 mph 4.0 mph 75 % 0.00 in
14:37 75.4 °F 66.9 °F 29.69 in NW 2.0 mph 4.0 mph 75 % 0.00 in
14:42 75.2 °F 66.7 °F 29.68 in West 2.0 mph 5.0 mph 75 % 0.00 in
14:47 75.4 °F 66.9 °F 29.69 in NW 2.0 mph 5.0 mph 75 % 0.00 in
14:52 75.7 °F 66.4 °F 29.68 in West 1.0 mph 5.0 mph 73 % 0.00 in
14:57 75.7 °F 66.9 °F 29.68 in SW 5.0 mph 5.0 mph 74 % 0.00 in
15:01 75.9 °F 66.6 °F 29.68 in West 1.0 mph 5.0 mph 73 % 0.00 in
15:06 75.7 °F 66.0 °F 29.68 in West 1.0 mph 5.0 mph 72 % 0.00 in
15:11 75.9 °F 66.6 °F 29.67 in SW 2.0 mph 5.0 mph 73 % 0.00 in
15:16 75.7 °F 66.0 °F 29.67 in Calm   4.0 mph 72 % 0.00 in
15:22 75.6 °F 64.8 °F 29.67 in NW 2.0 mph 4.0 mph 69 % 0.00 in
15:27 75.4 °F 64.9 °F 29.67 in Calm   4.0 mph 70 % 0.00 in
15:32 75.2 °F 64.8 °F 29.66 in Calm   3.0 mph 70 % 0.00 in
15:37 74.8 °F 64.4 °F 29.66 in Calm   3.0 mph 70 % 0.00 in
15:42 74.7 °F 64.6 °F 29.67 in Calm   2.0 mph 71 % 0.00 in
15:47 74.7 °F 64.6 °F 29.66 in Calm   2.0 mph 71 % 0.00 in
15:52 74.5 °F 64.9 °F 29.66 in NW 2.0 mph 2.0 mph 72 % 0.00 in
15:57 74.3 °F 65.1 °F 29.67 in Calm   2.0 mph 73 % 0.00 in
16:07 74.1 °F 65.3 °F 29.67 in East 1.0 mph 3.0 mph 74 % 0.00 in
16:12 73.9 °F 65.1 °F 29.67 in ESE 2.0 mph 3.0 mph 74 % 0.00 in
16:17 73.8 °F 65.7 °F 29.68 in South 2.0 mph 3.0 mph 76 % 0.00 in
16:22 73.2 °F 65.1 °F 29.68 in SE 3.0 mph 3.0 mph 76 % 0.00 in
16:27 73.0 °F 64.9 °F 29.68 in SSE 3.0 mph 5.0 mph 76 % 0.00 in
16:32 72.9 °F 65.3 °F 29.69 in SSW 2.0 mph 5.0 mph 77 % 0.00 in
16:37 72.7 °F 65.1 °F 29.69 in South 1.0 mph 5.0 mph 77 % 0.00 in
16:42 72.3 °F 64.8 °F 29.70 in SSE 1.0 mph 4.0 mph 77 % 0.00 in
16:47 72.3 °F 65.1 °F 29.67 in SE 6.0 mph 6.0 mph 78 % 0.00 in
16:52 72.3 °F 65.8 °F 29.64 in ESE 7.0 mph 9.0 mph 80 % 0.00 in
16:57 71.8 °F 66.0 °F 29.64 in East 3.0 mph 10.0 mph 82 % 0.00 in
17:02 71.2 °F 65.8 °F 29.65 in SSW 3.0 mph 10.0 mph 83 % 0.00 in
17:07 70.9 °F 65.8 °F 29.66 in ESE 3.0 mph 10.0 mph 84 % 0.00 in
17:12 70.7 °F 65.7 °F 29.66 in North 2.0 mph 8.0 mph 84 % 0.01 in
17:17 70.7 °F 65.7 °F 29.65 in ESE 2.0 mph 8.0 mph 84 % 0.01 in
17:22 70.5 °F 65.5 °F 29.65 in NE 2.0 mph 4.0 mph 84 % 0.01 in
17:27 70.3 °F 65.7 °F 29.65 in Calm   5.0 mph 85 % 0.01 in
17:32 70.0 °F 66.0 °F 29.68 in SW 1.0 mph 5.0 mph 87 % 0.01 in
17:37 69.6 °F 65.8 °F 29.68 in WNW 1.0 mph 5.0 mph 88 % 0.02 in
17:42 69.3 °F 65.8 °F 29.68 in West 1.0 mph 4.0 mph 89 % 0.04 in
17:47 68.7 °F 66.0 °F 29.68 in West 2.0 mph 5.0 mph 91 % 0.06 in
17:52 68.4 °F 65.7 °F 29.68 in Calm   5.0 mph 91 % 0.06 in
17:57 68.4 °F 66.0 °F 29.67 in ESE 2.0 mph 5.0 mph 92 % 0.08 in
18:02 68.0 °F 65.7 °F 29.66 in Calm   3.0 mph 92 % 0.08 in
18:07 67.8 °F 65.7 °F 29.66 in ESE 3.0 mph 3.0 mph 93 % 0.10 in
18:12 67.8 °F 66.0 °F 29.65 in East 1.0 mph 3.0 mph 94 % 0.09 in
18:17 67.6 °F 65.8 °F 29.65 in East 1.0 mph 3.0 mph 94 % 0.09 in
18:22 67.6 °F 65.8 °F 29.66 in ESE 4.0 mph 4.0 mph 94 % 0.10 in
18:27 67.5 °F 66.0 °F 29.65 in Calm   6.0 mph 95 % 0.10 in
18:32 67.3 °F 65.8 °F 29.66 in ESE 2.0 mph 6.0 mph 95 % 0.09 in
18:37 67.3 °F 65.8 °F 29.66 in Calm   6.0 mph 95 % 0.09 in
18:42 67.1 °F 65.7 °F 29.66 in Calm   3.0 mph 95 % 0.07 in
18:47 67.1 °F 65.7 °F 29.65 in Calm   3.0 mph 95 % 0.05 in
18:52 66.9 °F 65.7 °F 29.65 in Calm   2.0 mph 96 % 0.05 in
18:57 66.9 °F 65.7 °F 29.66 in ESE 1.0 mph 3.0 mph 96 % 0.04 in
19:02 66.9 °F 65.7 °F 29.66 in East 2.0 mph 5.0 mph 96 % 0.03 in
19:07 66.9 °F 65.7 °F 29.66 in SE 2.0 mph 5.0 mph 96 % 0.02 in
19:12 66.7 °F 65.5 °F 29.66 in SE 3.0 mph 5.0 mph 96 % 0.02 in
19:17 66.7 °F 65.5 °F 29.65 in ESE 1.0 mph 5.0 mph 96 % 0.02 in
19:22 66.6 °F 65.3 °F 29.66 in Calm   5.0 mph 96 % 0.01 in
19:27 66.6 °F 65.3 °F 29.66 in SE 1.0 mph 4.0 mph 96 % 0.01 in
19:32 66.6 °F 65.3 °F 29.66 in SE 2.0 mph 2.0 mph 96 % 0.01 in
19:37 66.4 °F 65.1 °F 29.67 in ESE 1.0 mph 3.0 mph 96 % 0.01 in
19:42 66.4 °F 65.1 °F 29.67 in SE 1.0 mph 3.0 mph 96 % 0.01 in
19:47 66.4 °F 65.1 °F 29.67 in Calm   3.0 mph 96 % 0.00 in
19:52 66.2 °F 64.9 °F 29.67 in SE 1.0 mph 2.0 mph 96 % 0.00 in
19:57 66.2 °F 65.3 °F 29.68 in SSE 2.0 mph 4.0 mph 97 % 0.00 in
20:02 66.2 °F 65.3 °F 29.68 in SE 3.0 mph 4.0 mph 97 % 0.00 in
20:07 66.2 °F 65.3 °F 29.68 in ESE 3.0 mph 4.0 mph 97 % 0.00 in
20:12 66.0 °F 65.1 °F 29.68 in ESE 3.0 mph 4.0 mph 97 % 0.00 in
20:17 66.0 °F 65.1 °F 29.68 in SE 1.0 mph 4.0 mph 97 % 0.00 in
20:22 66.0 °F 64.8 °F 29.68 in SE 2.0 mph 4.0 mph 96 % 0.00 in
20:27 66.0 °F 64.8 °F 29.68 in SE 2.0 mph 4.0 mph 96 % 0.00 in
20:32 65.8 °F 64.6 °F 29.68 in Calm   5.0 mph 96 % 0.00 in
20:37 65.8 °F 64.6 °F 29.68 in SSE 1.0 mph 5.0 mph 96 % 0.00 in
20:42 65.7 °F 64.4 °F 29.68 in ESE 2.0 mph 5.0 mph 96 % 0.00 in
20:47 65.7 °F 64.4 °F 29.68 in ESE 3.0 mph 5.0 mph 96 % 0.00 in
20:52 65.5 °F 64.2 °F 29.68 in ESE 2.0 mph 5.0 mph 96 % 0.00 in
20:57 65.5 °F 64.2 °F 29.68 in SE 3.0 mph 5.0 mph 96 % 0.00 in
21:02 65.5 °F 64.0 °F 29.68 in ESE 5.0 mph 6.0 mph 95 % 0.00 in
21:07 65.5 °F 64.0 °F 29.68 in SE 3.0 mph 6.0 mph 95 % 0.00 in
21:12 65.5 °F 64.2 °F 29.68 in ESE 4.0 mph 6.0 mph 96 % 0.00 in
21:17 65.5 °F 64.2 °F 29.68 in SE 3.0 mph 6.0 mph 96 % 0.00 in
21:22 65.5 °F 64.2 °F 29.67 in SE 3.0 mph 6.0 mph 96 % 0.00 in
21:27 65.5 °F 64.2 °F 29.67 in SE 5.0 mph 6.0 mph 96 % 0.00 in
21:32 65.5 °F 64.2 °F 29.67 in SSE 3.0 mph 7.0 mph 96 % 0.00 in
21:37 65.5 °F 64.2 °F 29.66 in SSE 2.0 mph 7.0 mph 96 % 0.00 in
21:42 65.3 °F 64.0 °F 29.67 in ESE 3.0 mph 7.0 mph 96 % 0.00 in
21:47 65.3 °F 64.0 °F 29.66 in East 3.0 mph 6.0 mph 96 % 0.00 in
21:52 65.1 °F 64.0 °F 29.65 in ESE 2.0 mph 5.0 mph 96 % 0.00 in
21:57 64.9 °F 63.9 °F 29.65 in ESE 3.0 mph 6.0 mph 96 % 0.00 in
22:02 64.9 °F 63.9 °F 29.65 in SE 4.0 mph 6.0 mph 96 % 0.00 in
22:07 64.9 °F 63.5 °F 29.65 in ESE 2.0 mph 6.0 mph 95 % 0.00 in
22:12 64.9 °F 63.5 °F 29.63 in ESE 3.0 mph 6.0 mph 95 % 0.00 in
22:17 64.8 °F 63.3 °F 29.65 in SE 4.0 mph 6.0 mph 95 % 0.00 in
22:22 64.8 °F 63.3 °F 29.65 in ESE 1.0 mph 6.0 mph 95 % 0.00 in
22:27 64.8 °F 63.3 °F 29.66 in Calm   6.0 mph 95 % 0.00 in
22:32 64.8 °F 63.3 °F 29.66 in South 1.0 mph 6.0 mph 95 % 0.00 in
22:37 64.8 °F 63.7 °F 29.67 in NNW 1.0 mph 4.0 mph 96 % 0.01 in
22:42 64.8 °F 63.7 °F 29.66 in WNW 4.0 mph 7.0 mph 96 % 0.01 in
22:47 64.8 °F 63.7 °F 29.68 in NW 1.0 mph 8.0 mph 96 % 0.01 in
22:52 64.8 °F 63.7 °F 29.68 in Calm   8.0 mph 96 % 0.02 in
22:57 64.8 °F 63.7 °F 29.68 in NNW 1.0 mph 8.0 mph 96 % 0.10 in
23:02 64.8 °F 63.7 °F 29.67 in NE 1.0 mph 5.0 mph 96 % 0.21 in
23:07 64.8 °F 63.7 °F 29.66 in ESE 1.0 mph 4.0 mph 96 % 0.33 in
23:12 64.8 °F 63.7 °F 29.66 in Calm   4.0 mph 96 % 0.43 in
23:17 64.6 °F 63.7 °F 29.66 in NNW 2.0 mph 4.0 mph 97 % 0.44 in
23:22 64.6 °F 63.7 °F 29.66 in Calm   4.0 mph 97 % 0.44 in
23:27 64.4 °F 63.5 °F 29.66 in Calm   3.0 mph 97 % 0.44 in
23:32 64.2 °F 63.3 °F 29.66 in SE 2.0 mph 3.0 mph 97 % 0.44 in
23:37 64.2 °F 63.3 °F 29.67 in SE 1.0 mph 2.0 mph 97 % 0.43 in
23:42 64.2 °F 63.3 °F 29.67 in Calm   2.0 mph 97 % 0.43 in
23:47 64.0 °F 63.1 °F 29.66 in Calm   2.0 mph 97 % 0.43 in
23:52 64.0 °F 63.1 °F 29.66 in Calm   2.0 mph 97 % 0.42 in
23:57 63.9 °F 63.0 °F 29.67 in Calm   2.0 mph 97 % 0.34 in
Spring, Texas: Villages of Bridgestone
Compliments of Weather Underground - 2.75 mb

Script developed by  Jim McMurry - jmcmurry@mwt.net Adapted for the template by  Wim van der Kuil - Leuven-Template.eu

You find our weather info also at:

UK Metoffice

WeatherCloud

Weather Underground

Mid-South Weather Network

AWEKAS

Citizen Weather Observer Program (CWOP)

HAMweather, WeatherForYou, PWS Weather

Equipment we use:

Weather-station
Davis Vantage Vue

Weather-program
Meteohub

Weather-server
Debian 7.9 x86 (Guest)

Provider
DreamHost

Davis Vantage Vue

Meteohub

Debian 7.9 x86 (Guest)

DreamHost